createdAt,value
2017-06-22T13:45:24.583Z,25.4
2017-06-22T13:46:27.018Z,25.4
2017-06-22T13:47:29.670Z,25.4
2017-06-22T13:48:32.262Z,25.4
2017-06-22T13:49:34.669Z,25.5
2017-06-22T13:50:37.271Z,25.4
2017-06-22T13:51:39.700Z,25.5
2017-06-22T13:52:42.205Z,25.5
2017-06-22T13:53:44.720Z,25.6
2017-06-22T13:54:47.237Z,25.6
2017-06-22T13:55:49.918Z,25.6
2017-06-22T13:56:52.419Z,25.6
2017-06-22T13:57:54.829Z,25.7
2017-06-22T13:58:57.338Z,25.7
2017-06-22T13:59:59.750Z,25.7
2017-06-22T14:00:39.464Z,25.7
2017-06-22T14:01:44.721Z,25.8
2017-06-22T14:02:47.172Z,25.8
2017-06-22T14:05:05.258Z,25.8
2017-06-22T14:06:07.688Z,25.8
2017-06-22T14:07:10.303Z,25.9
2017-06-22T14:09:28.284Z,26.0
2017-06-22T14:10:30.694Z,26.0
2017-06-22T14:11:33.110Z,26.1
2017-06-22T14:12:35.628Z,26.0
2017-06-22T14:13:38.098Z,26.0
2017-06-22T14:14:40.589Z,26.0
2017-06-22T14:15:43.089Z,26.0
2017-06-22T14:16:45.598Z,26.1
2017-06-22T14:17:48.109Z,26.1
2017-06-22T14:18:50.617Z,26.1
2017-06-22T14:19:53.117Z,26.2
2017-06-22T14:20:55.530Z,26.2
2017-06-22T14:21:26.787Z,26.2
2017-06-22T14:22:29.358Z,26.3
2017-06-22T14:23:32.131Z,26.3
2017-06-22T14:24:34.636Z,26.2
2017-06-22T14:25:37.048Z,26.2
2017-06-22T14:26:39.471Z,26.3
2017-06-22T14:27:41.931Z,26.3
2017-06-22T14:28:48.253Z,26.3
